• Join FlightAware (Why Join?)
  • Login
  • US Flag 
07:57AM EDT


 

Airport Tracker/Info


-or-


 

Live Flight TrackerFlight Track Log ✈ RPA3228 ✈ 04-Sep-2013 ✈ KBNA - KDCA

Flight Track Log - Related Links

Times and Time Zones

All times are in EDT time to prevent confusion due to time zone crossing. See the RPA3228 flight status page for this flight to view local times or setup timezone preferences in your user account.

Time Position Orientation Groundspeed Altitude Reporting Facility
EDT Latitude Longitude Course Direction KTS MPH feet Rate Location/Type
07:49AM 36.1333 -86.6833 68° East 162 186 1,500  Level Nashville TRACON
07:49AM 36.1667 -86.6667 22° Northeast 162 186 2,800 2,100 Climbing Nashville TRACON
07:50AM 36.1667 -86.6000 90° East 256 295 4,900 2,580 Climbing Nashville TRACON
07:51AM 36.1738 -86.2311 76° East  Level FlightAware Approximate
07:51AM 36.1667 -86.5000 90° East 294 338 8,000  Level Nashville TRACON
07:52AM 36.1972 -86.0863 80° East  Level FlightAware Approximate
07:53AM 36.2459 -85.9520 64° Northeast  Level FlightAware Approximate
07:53AM 36.1794 -86.2892 86° East 346 398 13,200  Level Memphis Center
07:54AM 36.2943 -85.8170 68° East  Level FlightAware Approximate
07:54AM 36.1900 -86.1703 84° East 341 392 15,500  Level Memphis Center
07:55AM 36.2108 -86.0483 78° East 349 402 17,700 1,980 Climbing Memphis Center
07:56AM 36.2592 -85.9403 61° Northeast 354 407 19,500 1,740 Climbing Memphis Center
07:58AM 36.3397 -85.7578 61° Northeast 383 441 22,400 1,620 Climbing Indianapolis Center
07:59AM 36.3961 -85.6436 58° Northeast 387 445 23,900 1,320 Climbing Indianapolis Center
08:00AM 36.4533 -85.5225 60° Northeast 400 460 25,200 1,620 Climbing Indianapolis Center
08:01AM 36.5119 -85.3983 60° Northeast 410 472 27,300 2,040 Climbing Indianapolis Center
08:02AM 36.5678 -85.2789 60° Northeast 403 464 29,400 1,860 Climbing Indianapolis Center
08:03AM 36.6236 -85.1553 61° Northeast 406 467 31,200 1,560 Climbing Indianapolis Center
08:04AM 36.6644 -85.0172 70° East 421 484 32,700 1,200 Climbing Indianapolis Center
08:05AM 36.7150 -84.8533 69° East 420 483 33,700 960 Climbing Indianapolis Center
08:06AM 36.7550 -84.7172 70° East 418 481 34,700 600 Climbing Indianapolis Center
08:07AM 36.7969 -84.5825 69° East 416 479 35,000 120 Climbing Indianapolis Center
08:08AM 36.8333 -84.4603 70° East 417 480 35,000  Level Indianapolis Center
08:09AM 36.8819 -84.3022 69° East 417 480 35,000  Level Indianapolis Center
08:10AM 36.9222 -84.1667 70° East 416 479 35,000  Level Indianapolis Center
08:11AM 36.9619 -84.0303 70° East 417 480 35,000  Level Indianapolis Center
08:12AM 37.0033 -83.8936 69° East 419 482 35,000  Level Indianapolis Center
08:13AM 37.0444 -83.7578 69° East 417 480 35,000  Level Indianapolis Center
08:15AM 37.0833 -83.6197 71° East 419 482 35,000  Level Indianapolis Center
08:16AM 37.1242 -83.4814 70° East 421 484 35,000  Level Indianapolis Center
08:17AM 37.1650 -83.3419 70° East 422 486 35,000  Level Indianapolis Center
08:18AM 37.2122 -83.1797 70° East 423 487 35,000  Level Indianapolis Center
08:19AM 37.2514 -83.0392 71° East 423 487 35,000  Level Indianapolis Center
08:20AM 37.2919 -82.8992 70° East 423 487 35,000  Level Indianapolis Center
08:21AM 37.3319 -82.7589 70° East 424 488 35,000  Level Indianapolis Center
08:22AM 37.3722 -82.6186 70° East 423 487 35,000  Level Indianapolis Center
08:23AM 37.4122 -82.4786 70° East 425 489 35,000  Level Indianapolis Center
08:24AM 37.4494 -82.3381 72° East 423 487 35,000  Level Indianapolis Center
08:25AM 37.4894 -82.1983 70° East 422 486 35,000  Level Indianapolis Center
08:26AM 37.5281 -82.0583 71° East 422 486 35,000  Level Indianapolis Center
08:27AM 37.5733 -81.8958 71° East 421 484 35,000  Level Indianapolis Center
08:28AM 37.6119 -81.7572 71° East 421 484 35,000  Level Indianapolis Center
08:29AM 37.6492 -81.6156 72° East 423 487 35,000  Level Indianapolis Center
08:30AM 37.6858 -81.4808 71° East 421 484 35,000  Level Indianapolis Center
08:31AM 37.7225 -81.3444 71° East 423 487 35,000  Level Indianapolis Center
08:32AM 37.7658 -81.1792 72° East 425 489 35,000  Level Indianapolis Center
08:33AM 37.8067 -81.0464 69° East 419 482 35,000  Level Indianapolis Center
08:34AM 37.8564 -80.9117 65° Northeast 421 484 35,000  Level Indianapolis Center
08:35AM 37.9042 -80.7750 66° East 424 488 35,000  Level Indianapolis Center
08:36AM 37.9517 -80.6400 66° East 422 486 35,000  Level Indianapolis Center
08:37AM 38.0064 -80.4911 65° Northeast 415 478 35,000  Level Washington Center
08:38AM 38.0558 -80.3544 65° Northeast 415 478 35,000  Level Washington Center
08:39AM 38.1075 -80.2075 66° East 415 478 35,000  Level Washington Center
08:40AM 38.1564 -80.0731 65° Northeast 415 478 35,000  Level Washington Center
08:41AM 38.2053 -79.9333 66° East 415 478 35,000 -120 Level Washington Center
08:42AM 38.2561 -79.7961 65° Northeast 415 478 34,800 -1,200 Descending Washington Center
08:43AM 38.3025 -79.6586 67° East 415 478 32,700 -2,220 Descending Washington Center
08:44AM 38.3464 -79.5311 66° East 428 493 30,400 -2,340 Descending Washington Center
08:45AM 38.3947 -79.3881 67° East 433 498 28,100 -1,740 Descending Washington Center
08:46AM 38.4369 -79.2417 70° East 433 498 27,000 -600 Descending Washington Center
08:47AM 38.4644 -79.0839 77° East 438 504 27,000 -120 Level Washington Center
08:48AM 38.4922 -78.9156 78° East 446 513 26,800 -1,260 Descending Washington Center
08:49AM 38.5150 -78.7625 79° East 445 512 24,600 -2,160 Descending Washington Center
08:50AM 38.5378 -78.6150 79° East 433 498 22,600 -1,500 Descending Washington Center
08:51AM 38.5600 -78.4725 79° East 418 481 21,600 -1,320 Descending Washington Center
08:52AM 38.5819 -78.3353 78° East 407 468 20,000 -2,580 Descending Washington Center
08:53AM 38.6119 -78.2008 74° East 402 463 16,500 -2,520 Descending Washington Center
08:54AM 38.6542 -78.0747 67° East 388 447 15,100 -1,260 Descending Washington Center
08:55AM 38.6942 -77.9511 67° East 378 435 14,000 -1,440 Descending Washington Center
08:56AM 38.7342 -77.8297 67° East 372 428 12,200 -1,620 Descending Washington Center
08:57AM 38.7964 -77.7358 50° Northeast 350 403 10,900 -1,020 Descending Washington Center
08:58AM 38.8439 -77.6386 58° Northeast 335 386 10,200 -840 Descending Washington Center
08:59AM 38.8667 -77.5833 62° Northeast 307 353 9,700 -1,140 Descending Potomac TRACON
09:00AM 38.9000 -77.4833 67° East 295 339 8,500 -1,320 Descending Potomac TRACON
09:01AM 38.8833 -77.4000 104° East 298 343 7,300 -1,320 Descending Potomac TRACON
09:02AM 38.8500 -77.3167 117° Southeast 276 318 6,100 -720 Descending Potomac TRACON
09:02AM 38.8167 -77.2500 123° Southeast 227 261 6,000 -60 Descending Potomac TRACON
09:03AM 38.8000 -77.1833 108° East 228 262 6,000 -300 Level Potomac TRACON
09:04AM 38.7500 -77.1167 134° Southeast 228 262 5,500 -720 Descending Potomac TRACON
09:05AM 38.7000 -77.1167 180° South 206 237 4,600 -840 Descending Potomac TRACON
09:06AM 38.6333 -77.1000 169° South 215 247 4,000 -300 Descending Potomac TRACON
09:07AM 38.5833 -77.1000 180° South 216 249 4,000  Level Potomac TRACON
09:08AM 38.5167 -77.1000 180° South 219 252 4,100  Climbing Potomac TRACON
09:09AM 38.5167 -77.0167 90° East 214 246 4,000 -60 Descending Potomac TRACON
09:10AM 38.5667 -77.0167 360° North 188 216 4,000  Level Potomac TRACON
09:11AM 38.6167 -77.0167 360° North 187 215 4,000 -360 Level Potomac TRACON
09:12AM 38.6667 -77.0167 360° North 195 224 3,300 -840 Descending Potomac TRACON
09:13AM 38.7167 -77.0167 360° North 165 190 2,400 -900 Descending Potomac TRACON
09:14AM 38.7500 -77.0333 339° North 128 147 1,700 -660 Descending Potomac TRACON
09:15AM 38.7833 -77.0333 360° North 116 133 1,200 -480 Descending Potomac TRACON
09:16AM 38.8167 -77.0333 360° North 117 135 800 -420 Descending Potomac TRACON